• Join FlightAware (Why Join?)
  • Login
  • US Flag 
01:22AM EDT


 

Airport Tracker/Info


-or-


 

Live Flight TrackerFlight Track Log ✈ EZY2567 ✈ 19-Apr-2013 ✈ LIMC / MXP - GMMN / CMN

Flight Track Log - Related Links

Times and Time Zones

All times are in EDT time to prevent confusion due to time zone crossing. See the EZY2567 flight status page for this flight to view local times or setup timezone preferences in your user account.

Time Position Orientation Groundspeed Altitude Reporting Facility
EDT Latitude Longitude Course Direction KTS MPH feet Rate Location/Type
01:21AM 44.8305 7.3377 231° Southwest  Level Estimated
01:22AM 44.7683 7.2323 230° Southwest  Level Estimated
01:23AM 44.7059 7.1272 230° Southwest  Level Estimated
01:23AM 45.6650 8.7280 230° Southwest 176 203 2,100  Level FlightAware
01:23AM 45.6880 8.7270 358° North 179 206 3,200 2,160 Climbing FlightAware
01:23AM 45.7100 8.7260 358° North 188 216 4,100 1,620 Climbing FlightAware
01:24AM 45.7200 8.7160 325° Northwest 203 234 4,300 960 Climbing FlightAware
01:24AM 45.7240 8.7020 292° West 215 247 4,500 1,320 Climbing FlightAware
01:24AM 45.7140 8.6610 251° West 247 284 5,200 1,980 Climbing FlightAware
01:25AM 45.6970 8.6120 244° Southwest 271 312 6,500 2,760 Climbing FlightAware
01:25AM 45.6800 8.5630 244° Southwest 280 322 8,000 3,000 Climbing FlightAware
01:26AM 45.6660 8.5210 245° Southwest 284 327 9,300 2,580 Climbing FlightAware
01:26AM 45.6420 8.4510 244° Southwest 306 352 10,800 2,100 Climbing FlightAware
01:29AM 45.5163 8.2328 231° Southwest  Level Estimated
01:30AM 45.4544 8.1258 230° Southwest  Level Estimated
01:31AM 45.3923 8.0191 230° Southwest  Level Estimated
01:32AM 45.3302 7.9127 230° Southwest  Level Estimated
01:32AM 45.1080 8.1440 230° Southwest 391 450 23,200  Level FlightAware
01:33AM 45.0280 8.1000 201° Southwest 399 459 24,400 1,800 Climbing FlightAware
01:34AM 44.9620 8.0650 201° Southwest 394 453 25,800 1,440 Climbing FlightAware
01:34AM 44.8810 8.0200 201° Southwest 411 473 26,500 1,020 Climbing FlightAware
01:35AM 44.8110 7.9820 201° Southwest 420 483 27,300 1,200 Climbing FlightAware
01:36AM 44.7400 7.9440 201° Southwest 425 489 28,100 1,080 Climbing FlightAware
01:36AM 44.6720 7.9070 201° Southwest 430 495 28,800 1,140 Climbing FlightAware
01:37AM 44.5510 7.8420 201° Southwest 433 498 30,000 1,080 Climbing FlightAware
01:38AM 44.4830 7.8050 201° Southwest 444 511 30,600 960 Climbing FlightAware
01:39AM 44.3970 7.7600 201° Southwest 448 516 31,400 1,260 Climbing FlightAware
01:40AM 44.3160 7.7160 201° Southwest 443 510 32,400 1,320 Climbing FlightAware
01:40AM 44.2580 7.6790 205° Southwest 435 501 33,100 1,200 Climbing FlightAware
01:41AM 44.1950 7.5720 231° Southwest 427 491 34,100 1,020 Climbing FlightAware
01:42AM 44.1490 7.4780 236° Southwest 427 491 34,700 660 Climbing FlightAware
01:42AM 44.1050 7.3870 236° Southwest 426 490 35,000 180 Climbing FlightAware
01:43AM 44.0500 7.2730 236° Southwest 425 489 35,000  Level FlightAware
01:44AM 44.0080 7.1850 236° Southwest 422 486 35,000  Level FlightAware
01:44AM 43.9580 7.0820 236° Southwest 420 483 35,000  Level FlightAware
01:45AM 43.9150 6.9950 236° Southwest 420 483 35,000  Level FlightAware
01:46AM 43.8680 6.8990 236° Southwest 419 482 35,000 420 Level FlightAware
01:47AM 43.8160 6.7930 236° Southwest 416 479 35,700 840 Climbing FlightAware
01:47AM 43.7900 6.7400 236° Southwest 410 472 36,100 900 Climbing FlightAware
01:48AM 43.7310 6.6210 236° Southwest 412 474 36,900 600 Climbing FlightAware
01:49AM 43.6860 6.5300 236° Southwest 412 474 37,000 60 Climbing FlightAware
01:49AM 43.6440 6.4460 235° Southwest 414 476 37,000  Level FlightAware
01:50AM 43.5970 6.3530 235° Southwest 413 475 37,000  Level FlightAware
01:51AM 43.5490 6.2570 235° Southwest 411 473 37,000  Level FlightAware
01:51AM 43.5060 6.1700 236° Southwest 411 473 37,000  Level FlightAware
01:52AM 43.4580 6.0730 236° Southwest 412 474 37,000  Level FlightAware
01:53AM 43.4140 5.9940 233° Southwest 412 474 37,000  Level FlightAware
01:54AM 43.3670 5.9090 233° Southwest 411 473 37,000  Level FlightAware
01:54AM 43.3230 5.8270 234° Southwest 411 473 37,000  Level FlightAware
01:55AM 43.2660 5.7220 233° Southwest 411 473 37,000  Level FlightAware
01:56AM 43.2270 5.6510 233° Southwest 410 472 37,000  Level FlightAware
01:56AM 43.1720 5.5500 233° Southwest 410 472 37,000  Level FlightAware
01:57AM 43.1280 5.4690 233° Southwest 410 472 37,000  Level FlightAware
01:58AM 43.0770 5.3760 233° Southwest 410 472 37,000  Level FlightAware
01:58AM 43.0470 5.3220 233° Southwest 410 472 37,000  Level FlightAware
01:59AM 42.9780 5.1970 233° Southwest 410 472 37,000  Level FlightAware
02:00AM 42.9390 5.1260 233° Southwest 410 472 37,000  Level FlightAware
02:01AM 42.8930 5.0440 233° Southwest 409 471 37,000  Level FlightAware
02:01AM 42.8380 4.9440 233° Southwest 404 465 37,000  Level FlightAware
02:02AM 42.7980 4.8740 232° Southwest 409 471 37,000  Level FlightAware
02:03AM 42.7430 4.7740 233° Southwest 408 470 37,000  Level FlightAware
02:03AM 42.7000 4.6970 233° Southwest 403 464 37,000  Level FlightAware
02:04AM 42.6480 4.6060 232° Southwest 402 463 37,000  Level FlightAware
02:05AM 42.5860 4.4950 233° Southwest 402 463 37,000  Level FlightAware
02:06AM 42.5480 4.4270 233° Southwest 402 463 37,000  Level FlightAware
02:06AM 42.4860 4.3190 232° Southwest 402 463 37,000  Level FlightAware
02:07AM 42.4340 4.2290 232° Southwest 407 468 37,000  Level FlightAware
02:08AM 42.3880 4.1490 232° Southwest 407 468 37,000  Level FlightAware
02:09AM 42.3270 4.0410 233° Southwest 407 468 37,000  Level FlightAware
02:09AM 42.2740 3.9490 232° Southwest 406 467 37,000  Level FlightAware
02:10AM 42.2340 3.8800 232° Southwest 405 466 37,000  Level FlightAware
02:11AM 42.1840 3.7930 232° Southwest 405 466 37,000  Level FlightAware
02:12AM 42.1310 3.7030 232° Southwest 403 464 37,000  Level FlightAware
02:12AM 42.0870 3.6180 235° Southwest 402 463 37,000  Level FlightAware
02:13AM 42.0510 3.5180 244° Southwest 399 459 37,000  Level FlightAware
02:14AM 42.0200 3.4260 246° West 399 459 37,000  Level FlightAware
02:14AM 41.9900 3.3350 246° West 399 459 37,000  Level FlightAware
02:15AM 41.9580 3.2410 245° Southwest 400 460 37,000  Level FlightAware
02:16AM 41.9190 3.1590 237° Southwest 402 463 37,000  Level FlightAware
02:16AM 41.8650 3.0650 232° Southwest 403 464 37,000  Level FlightAware
02:17AM 41.8200 2.9860 233° Southwest 403 464 37,000  Level FlightAware
02:18AM 41.7690 2.8990 232° Southwest 404 465 37,000  Level FlightAware
02:19AM 41.7210 2.8150 233° Southwest 404 465 37,000  Level FlightAware
02:19AM 41.6720 2.7310 232° Southwest 403 464 37,000  Level FlightAware
02:20AM 41.6250 2.6500 232° Southwest 402 463 37,000  Level FlightAware
02:21AM 41.5800 2.5730 232° Southwest 401 461 37,000  Level FlightAware
02:21AM 41.5360 2.4960 233° Southwest 401 461 37,000  Level FlightAware
02:22AM 41.4820 2.4050 232° Southwest 401 461 37,000  Level FlightAware
02:23AM 41.4360 2.3270 232° Southwest 401 461 37,000  Level FlightAware
02:23AM 41.3840 2.2390 232° Southwest 400 460 37,000  Level FlightAware
02:24AM 41.3400 2.1650 232° Southwest 400 460 37,000  Level FlightAware
02:25AM 41.2870 2.0790 231° Southwest 400 460 37,000  Level FlightAware
02:26AM 41.2380 2.0050 229° Southwest 400 460 37,000  Level FlightAware
02:26AM 41.1810 1.9220 228° Southwest 401 461 37,000  Level FlightAware
02:27AM 41.1320 1.8490 228° Southwest 401 461 37,000  Level FlightAware
02:28AM 41.0840 1.7780 228° Southwest 402 463 37,000  Level FlightAware
02:28AM 41.0280 1.6960 228° Southwest 403 464 37,000  Level FlightAware
02:29AM 40.9770 1.6210 228° Southwest 402 463 37,000  Level FlightAware
02:30AM 40.9190 1.5380 227° Southwest 402 463 37,000  Level FlightAware
02:30AM 40.8690 1.4640 228° Southwest 402 463 37,000  Level FlightAware
02:31AM 40.8190 1.3920 227° Southwest 402 463 37,000  Level FlightAware
02:32AM 40.7640 1.3110 228° Southwest 401 461 37,000  Level FlightAware
02:32AM 40.7200 1.2480 227° Southwest 401 461 37,000  Level FlightAware
02:33AM 40.6650 1.1690 227° Southwest 401 461 37,000  Level FlightAware
02:34AM 40.6060 1.0840 228° Southwest 401 461 37,000  Level FlightAware
02:35AM 40.5600 1.0180 227° Southwest 400 460 37,000  Level FlightAware
02:35AM 40.5080 0.9440 227° Southwest 400 460 37,000  Level FlightAware
02:36AM 40.4510 0.8620 228° Southwest 400 460 37,000  Level FlightAware
02:37AM 40.4000 0.7900 227° Southwest 401 461 37,000  Level FlightAware
02:37AM 40.3450 0.7120 227° Southwest 401 461 37,000  Level FlightAware
02:38AM 40.2940 0.6390 228° Southwest 401 461 37,000  Level FlightAware
02:39AM 40.2380 0.5610 227° Southwest 401 461 37,000  Level FlightAware
02:40AM 40.1860 0.4870 227° Southwest 401 461 37,000  Level FlightAware
02:40AM 40.1370 0.4180 227° Southwest 401 461 37,000  Level FlightAware
02:41AM 40.0790 0.3370 227° Southwest 401 461 37,000  Level FlightAware
02:42AM 40.0290 0.2670 227° Southwest 400 460 37,000  Level FlightAware
02:42AM 39.9710 0.1860 227° Southwest 401 461 37,000  Level FlightAware
02:43AM 39.9200 0.1150 227° Southwest 401 461 37,000  Level FlightAware
02:44AM 39.8630 0.0370 226° Southwest 401 461 37,000  Level FlightAware
02:44AM 39.8140 -0.0320 227° Southwest 402 463 37,000  Level FlightAware
02:45AM 39.7620 -0.1030 226° Southwest 403 464 37,000  Level FlightAware
02:46AM 39.7110 -0.1730 227° Southwest 404 465 37,000  Level FlightAware
02:47AM 39.6520 -0.2540 227° Southwest 405 466 37,000  Level FlightAware
02:47AM 39.6010 -0.3250 227° Southwest 405 466 37,000  Level FlightAware
02:48AM 39.5480 -0.3970 226° Southwest 404 465 37,000  Level FlightAware
02:49AM 39.4940 -0.4720 227° Southwest 403 464 37,000  Level FlightAware
02:49AM 39.4490 -0.5450 231° Southwest 400 460 37,000  Level FlightAware
02:50AM 39.3960 -0.6350 233° Southwest 401 461 37,000  Level FlightAware
02:51AM 39.3510 -0.7120 233° Southwest 401 461 37,000  Level FlightAware
02:51AM 39.3010 -0.7970 233° Southwest 403 464 37,000  Level FlightAware
02:52AM 39.2570 -0.8720 233° Southwest 403 464 37,000  Level FlightAware
02:53AM 39.2060 -0.9580 233° Southwest 405 466 37,000  Level FlightAware
02:54AM 39.1530 -1.0470 232° Southwest 403 464 37,000  Level FlightAware
02:54AM 39.1080 -1.1220 232° Southwest 403 464 37,000  Level FlightAware
02:55AM 39.0720 -1.1830 233° Southwest 404 465 37,000  Level FlightAware
02:56AM 39.0120 -1.2820 232° Southwest 402 463 37,000  Level FlightAware
02:56AM 38.9680 -1.3550 232° Southwest 402 463 37,000  Level FlightAware
02:57AM 38.9170 -1.4420 233° Southwest 403 464 37,000  Level FlightAware
02:58AM 38.8690 -1.5210 232° Southwest 403 464 37,000  Level FlightAware
02:59AM 38.8190 -1.6030 232° Southwest 404 465 37,000  Level FlightAware
02:59AM 38.7860 -1.6570 232° Southwest 404 465 37,000  Level FlightAware
03:00AM 38.7290 -1.7520 232° Southwest 399 459 37,000  Level FlightAware
03:01AM 38.6780 -1.8360 232° Southwest 399 459 37,000  Level FlightAware
03:01AM 38.6330 -1.9090 232° Southwest 399 459 37,000  Level FlightAware
03:02AM 38.5870 -1.9840 232° Southwest 399 459 37,000  Level FlightAware
03:03AM 38.5350 -2.0690 232° Southwest 400 460 37,000  Level FlightAware
03:03AM 38.4890 -2.1440 232° Southwest 401 461 37,000  Level FlightAware
03:04AM 38.4400 -2.2250 232° Southwest 401 461 37,000  Level FlightAware
03:05AM 38.3940 -2.2980 231° Southwest 401 461 37,000  Level FlightAware
03:06AM 38.3330 -2.3890 230° Southwest 404 465 37,000  Level FlightAware
03:06AM 38.2810 -2.4590 227° Southwest 403 464 37,000  Level FlightAware
03:07AM 38.2410 -2.5130 227° Southwest 403 464 37,000  Level FlightAware
03:08AM 38.1810 -2.5930 226° Southwest 403 464 37,000  Level FlightAware
03:08AM 38.1180 -2.6780 227° Southwest 408 470 37,000  Level FlightAware
03:09AM 38.0730 -2.7370 226° Southwest 410 472 37,000  Level FlightAware
03:10AM 38.0190 -2.8100 227° Southwest 407 468 37,000  Level FlightAware
03:11AM 37.9380 -2.9170 226° Southwest 414 476 37,000  Level FlightAware
03:11AM 37.8850 -2.9860 226° Southwest 414 476 37,000  Level FlightAware
03:12AM 37.8400 -3.0450 226° Southwest 414 476 37,000  Level FlightAware
03:13AM 37.7610 -3.1490 226° Southwest 418 481 37,000  Level FlightAware
03:14AM 37.7040 -3.2240 226° Southwest 418 481 37,000  Level FlightAware
03:14AM 37.6580 -3.2840 226° Southwest 418 481 37,000  Level FlightAware
03:15AM 37.5510 -3.4240 226° Southwest 417 480 37,000  Level FlightAware
03:17AM 37.4570 -3.5460 226° Southwest 418 481 37,000  Level FlightAware
03:18AM 37.3550 -3.6780 226° Southwest 422 486 37,000  Level FlightAware
03:19AM 37.2600 -3.8000 226° Southwest 418 481 37,000  Level FlightAware
03:20AM 37.1440 -3.9500 226° Southwest 420 483 37,000  Level FlightAware
03:21AM 37.0870 -4.0230 226° Southwest 420 483 37,000  Level FlightAware
03:22AM 37.0280 -4.0980 225° Southwest 420 483 37,000  Level FlightAware
03:23AM 36.9720 -4.1690 225° Southwest 420 483 37,000  Level FlightAware
03:23AM 36.9160 -4.2400 225° Southwest 420 483 37,000  Level FlightAware
03:24AM 36.8530 -4.3190 225° Southwest 419 482 37,000  Level FlightAware
03:25AM 36.7940 -4.3840 221° Southwest 423 487 37,000  Level FlightAware
03:25AM 36.7280 -4.4380 213° Southwest 424 488 37,000  Level FlightAware
03:26AM 36.6510 -4.4990 212° Southwest 424 488 37,000  Level FlightAware
03:27AM 36.5840 -4.5520 212° Southwest 424 488 37,000  Level FlightAware
03:27AM 36.5070 -4.6130 212° Southwest 426 490 37,000  Level FlightAware
03:28AM 36.4400 -4.6660 212° Southwest 427 491 37,000  Level FlightAware
03:29AM 36.3660 -4.7240 212° Southwest 434 499 37,000  Level FlightAware
03:30AM 36.2970 -4.7780 212° Southwest 435 501 37,000  Level FlightAware
03:30AM 36.2190 -4.8390 212° Southwest 436 502 37,000  Level FlightAware
03:31AM 36.1490 -4.8940 212° Southwest 435 501 37,000  Level FlightAware
03:32AM 36.0870 -4.9430 213° Southwest 436 502 37,000  Level FlightAware
03:32AM 36.0060 -5.0070 213° Southwest 436 502 37,000  Level FlightAware
03:33AM 35.9360 -5.0620 212° Southwest 437 503 37,000  Level FlightAware
03:34AM 35.8590 -5.1230 213° Southwest 436 502 37,000  Level FlightAware
03:34AM 35.7910 -5.1760 212° Southwest 428 493 37,000  Level FlightAware
03:35AM 35.7230 -5.2300 213° Southwest 426 490 37,000  Level FlightAware
03:36AM 35.6480 -5.2890 213° Southwest 425 489 37,000  Level FlightAware
03:37AM 35.5810 -5.3420 213° Southwest 423 487 37,000  Level FlightAware
03:37AM 35.5130 -5.3950 212° Southwest 424 488 37,000  Level FlightAware
03:38AM 35.4380 -5.4530 212° Southwest 426 490 37,000  Level FlightAware
03:39AM 35.3700 -5.5060 212° Southwest 426 490 37,000  Level FlightAware
03:39AM 35.2940 -5.5660 213° Southwest 426 490 37,000 60 Level FlightAware
03:40AM 35.2270 -5.6180 212° Southwest 425 489 37,100  Climbing FlightAware
03:41AM 35.1590 -5.6700 212° Southwest 424 488 37,000 -120 Descending FlightAware
03:41AM 35.0840 -5.7290 213° Southwest 424 488 37,000  Level FlightAware
03:42AM 35.0190 -5.7790 212° Southwest 424 488 37,000  Level FlightAware
03:43AM 34.9410 -5.8390 212° Southwest 425 489 37,000  Level FlightAware
03:44AM 34.8720 -5.8920 212° Southwest 426 490 37,000  Level FlightAware
03:44AM 34.7960 -5.9500 212° Southwest 435 501 37,000  Level FlightAware
03:45AM 34.7280 -6.0020 212° Southwest 435 501 37,000  Level FlightAware
03:46AM 34.6600 -6.0540 212° Southwest 435 501 37,000  Level FlightAware
03:46AM 34.5850 -6.1110 212° Southwest 435 501 37,000  Level FlightAware
03:47AM 34.5160 -6.1640 212° Southwest 436 502 37,000  Level FlightAware
03:48AM 34.4390 -6.2230 212° Southwest 437 503 37,000  Level FlightAware
03:48AM 34.3690 -6.2750 212° Southwest 438 504 37,000 -720 Level FlightAware
03:49AM 34.3030 -6.3260 213° Southwest 435 501 36,100 -1,140 Descending FlightAware
03:50AM 34.2130 -6.3940 212° Southwest 435 501 35,200 -600 Descending FlightAware
03:51AM 34.1550 -6.4370 212° Southwest 435 501 35,200  Level FlightAware
03:51AM 34.0970 -6.4810 212° Southwest 435 501 35,200  Level FlightAware
03:52AM 34.0240 -6.5360 212° Southwest 435 501 35,200  Level FlightAware
03:53AM 33.9660 -6.5800 212° Southwest 435 501 35,200  Level FlightAware
03:54AM 33.9080 -6.6230 212° Southwest 435 501 35,200  Level FlightAware
03:54AM 33.8500 -6.6670 212° Southwest 435 501 35,200  Level FlightAware
03:55AM 33.7920 -6.7110 212° Southwest 435 501 35,200  Level FlightAware
03:56AM 33.7200 -6.7650 212° Southwest 435 501 35,200  Level FlightAware
03:56AM 33.6620 -6.8090 212° Southwest 435 501 35,200  Level FlightAware
03:57AM 33.6040 -6.8520 212° Southwest 435 501 35,200  Level FlightAware
03:58AM 33.5460 -6.8960 212° Southwest 435 501 35,200  Level FlightAware
03:58AM 33.4880 -6.9390 212° Southwest 435 501 35,200  Level FlightAware
03:59AM 33.4150 -6.9940 212° Southwest 435 501 35,200  Level FlightAware
04:02AM 33.3940 -7.2638 265° West  Level Estimated
04:03AM 33.3847 -7.3811 265° West  Level Estimated
04:04AM 33.3753 -7.4984 265° West  Level Estimated
04:05AM 33.3680 -7.5880 264° West  Level Estimated
04:06AM 33.3680 -7.5880 257° West  Level Estimated
04:07AM 33.3680 -7.5880 257° West  Level Estimated
04:08AM 33.3680 -7.5880 257° West  Level Estimated
04:09AM 33.3680 -7.5880 257° West  Level Estimated
04:10AM 33.3680 -7.5880 257° West  Level Estimated
04:11AM 33.3680 -7.5880 257° West  Level Estimated
04:12AM 33.3680 -7.5880 257° West  Level Estimated
04:13AM 33.3680 -7.5880 257° West  Level Estimated
04:14AM 33.3680 -7.5880 257° West  Level Estimated
04:15AM 33.3680 -7.5880 257° West  Level Estimated
04:16AM 33.3680 -7.5880 257° West  Level Estimated
04:17AM 33.3680 -7.5880 257° West  Level Estimated
04:18AM 33.3680 -7.5880 257° West  Level Estimated
04:19AM 33.3680 -7.5880 257° West  Level Estimated
04:20AM 33.3680 -7.5880 257° West  Level Estimated
04:21AM 33.3680 -7.5880 257° West  Level Estimated
04:22AM 33.3680 -7.5880 257° West  Level Estimated